Portada
METAR-TAF:

METAR-TAF

Aeroports :

Txungking, Xina

latitud: 29-31N, longitud: 106-29E, altitud: 351 m

Observació

L'informe es va fer fa 11 minuts, a les 08:00 UTC
Vent 4 kt amb direcció variable
Temperatura 26°C
Humitat 45%
Pressió 1017 hPa
Visibilitat 10 km o més
sense núvols per sota de 1500 mi sense presència de cumulonimbus.

METAR: ZUCK 190800Z VRB02MPS CAVOK 26/13 Q1017 NOSIG

Hora: 16:11 (08:11 UTC)

Pronòstic

L'informe es va fer fa 5 hores i 0 minuts, a les 03:11 UTC
Pronòstic vàlid del 19 a les 06 UTC al 20 a les 06 UTC
Vent 4 kt del Nord/Nord-Est
Visibilitat: 6000 m
Núvols disperses a una alçada de 5000 ft
Evolucionant progressivament
l' 19 a les 22 UTC al 19 a les 23 UTC
Visibilitat: 4000 m
Escasses núvols a una alçada de 1000 ft
Núvols disperses a una alçada de 2000 ft
Cel ennuvolat a una alçada de 5000 ft
pluja, boirina

TAF: ZUCK 190311Z 1906/2006 03002MPS 6000 SCT050 TX25/1908Z TN15/1921Z BECMG 1922/1923 4000 -RA BR FEW010 SCT020 BKN050

Observacions i pronòstics meteorològics de més de 4000 aeroports (METAR i TAF).

Les estacions disponibles són els punts grocs i vermells al mapa.

Posi el ratolí al punt desitjat per veure el nom de l'estació.

Feu clic per veure les observacions i els pronòstics meteorològics.

Per canviar el mapa: feu clic els botons verds amb una creu de color negre per apropar; al botó verd amb un guió per allunyar la imatge; o en les fletxes verdes per a mapes adjacents.


METAR-TAF: